Time;durP1;ratioP1;P1;durP2;ratioP2;P2;SDS_P1;SDS_P2;PMS_P1;PMS_P2;Temp;Humidity;BMP_temperature;BMP_pressure;BME280_temperature;BME280_humidity;BME280_pressure;Samples;Min_cycle;Max_cycle;Signal;HPM_P1;HPM_P2
2022/11/16 00:02:11;;;;;;;9.05;3.20;;;;;;;-146.73;100.00;56421.06;6077330;23;20010;-95
2022/11/16 00:04:37;;;;;;;11.20;3.35;;;;;;;-146.73;100.00;56421.06;6114845;23;19995;-94
2022/11/16 00:07:03;;;;;;;10.43;3.33;;;;;;;-146.73;100.00;56421.06;6100565;23;20117;-94
2022/11/16 00:09:30;;;;;;;12.65;3.85;;;;;;;-146.73;100.00;56421.06;6066641;23;20010;-95
2022/11/16 00:12:04;;;;;;;12.60;3.75;;;;;;;-146.73;100.00;56421.06;6090021;23;20704;-94
2022/11/16 00:14:33;;;;;;;9.10;3.50;;;;;;;-146.73;100.00;56421.06;6089345;23;20014;-95
2022/11/16 00:17:03;;;;;;;11.95;4.13;;;;;;;-146.73;100.00;56421.06;6064029;23;20110;-95
2022/11/16 00:19:29;;;;;;;13.48;3.92;;;;;;;-146.73;100.00;56421.06;6064077;23;20003;-96
2022/11/16 00:21:54;;;;;;;9.93;3.83;;;;;;;-146.73;100.00;56421.06;6090499;23;20021;-95
2022/11/16 00:24:22;;;;;;;13.10;4.00;;;;;;;-146.73;100.00;56421.06;6092230;23;20452;-95
2022/11/16 00:26:48;;;;;;;11.75;3.85;;;;;;;-146.73;100.00;56421.06;6065558;23;20012;-94
2022/11/16 00:29:19;;;;;;;13.63;3.53;;;;;;;-146.73;100.00;56421.06;6063644;23;20418;-96
2022/11/16 00:31:46;;;;;;;10.18;3.60;;;;;;;-146.73;100.00;56421.06;6087748;23;20029;-93
2022/11/16 00:34:11;;;;;;;12.98;3.75;;;;;;;-146.73;100.00;56421.06;6087963;23;20046;-95
2022/11/16 00:36:37;;;;;;;13.23;3.53;;;;;;;-146.73;100.00;56421.06;6064236;23;20022;-93
2022/11/16 00:39:03;;;;;;;14.98;3.78;;;;;;;-146.73;100.00;56421.06;6059036;23;20022;-95
2022/11/16 00:41:29;;;;;;;11.07;3.33;;;;;;;-146.73;100.00;56421.06;6057827;23;20146;-94
2022/11/16 00:43:55;;;;;;;13.15;3.60;;;;;;;-146.73;100.00;56421.06;6058930;23;20044;-96
2022/11/16 00:46:20;;;;;;;11.80;3.63;;;;;;;-146.73;100.00;56421.06;6057530;23;20010;-93
2022/11/16 00:48:46;;;;;;;13.27;4.18;;;;;;;-146.73;100.00;56421.06;6083161;23;20030;-94
2022/11/16 00:51:13;;;;;;;12.88;4.65;;;;;;;-146.73;100.00;56421.06;6058369;23;20015;-95
2022/11/16 00:53:39;;;;;;;15.85;4.93;;;;;;;-146.73;100.00;56421.06;6083215;23;20026;-94
2022/11/16 00:56:05;;;;;;;16.98;5.65;;;;;;;-146.73;100.00;56421.06;6062329;23;20259;-94
2022/11/16 00:58:33;;;;;;;16.02;5.50;;;;;;;-146.73;100.00;56421.06;6062832;23;20398;-95
2022/11/16 01:01:05;;;;;;;18.85;6.57;;;;;;;-146.73;100.00;56421.06;6061824;23;20337;-95
2022/11/16 01:03:37;;;;;;;17.08;6.28;;;;;;;-146.73;100.00;56421.06;6085856;23;20027;-95
2022/11/16 01:06:04;;;;;;;19.52;7.15;;;;;;;-146.73;100.00;56421.06;6065280;23;20074;-94
2022/11/16 01:08:30;;;;;;;18.88;7.43;;;;;;;-146.73;100.00;56421.06;6062115;23;20023;-94
2022/11/16 01:12:07;;;;;;;20.05;7.50;;;;;;;-146.73;100.00;56421.06;6069168;23;20026;-95
2022/11/16 01:13:42;;;;;;;19.13;6.90;;;;;;;-146.73;100.00;56421.06;6084559;23;20097;-94
2022/11/16 01:16:08;;;;;;;15.88;6.93;;;;;;;-146.73;100.00;56421.06;6081953;23;20042;-95
2022/11/16 01:18:38;;;;;;;17.83;7.05;;;;;;;-146.73;100.00;56421.06;6093747;23;20019;-94
2022/11/16 01:21:05;;;;;;;18.48;7.28;;;;;;;-146.73;100.00;56421.06;6066681;23;20090;-95
2022/11/16 01:23:31;;;;;;;20.05;7.75;;;;;;;-146.73;100.00;56421.06;6088912;23;20312;-95
2022/11/16 01:26:00;;;;;;;12.80;6.95;;;;;;;-146.73;100.00;56421.06;6089512;23;20015;-95
2022/11/16 01:28:30;;;;;;;17.25;6.60;;;;;;;-146.73;100.00;56421.06;6073499;23;20019;-95
2022/11/16 01:30:56;;;;;;;18.52;7.05;;;;;;;-146.73;100.00;56421.06;6107890;23;19999;-95
2022/11/16 01:33:24;;;;;;;14.13;7.10;;;;;;;-146.73;100.00;56421.06;6104372;23;20045;-95
2022/11/16 01:35:50;;;;;;;17.60;6.75;;;;;;;-146.73;100.00;56421.06;6068430;23;20385;-94
2022/11/16 01:38:19;;;;;;;14.80;6.18;;;;;;;-146.73;100.00;56421.06;6064822;23;20026;-94
2022/11/16 01:40:48;;;;;;;14.15;5.72;;;;;;;-146.73;100.00;56421.06;6067204;23;20018;-94
2022/11/16 01:43:22;;;;;;;15.50;6.13;;;;;;;-146.73;100.00;56421.06;6065377;23;20007;-94
2022/11/16 01:45:50;;;;;;;12.40;6.15;;;;;;;-146.73;100.00;56421.06;6063414;23;20015;-94
2022/11/16 01:48:26;;;;;;;14.32;5.57;;;;;;;-146.73;100.00;56421.06;6064965;23;20011;-93
2022/11/16 01:50:56;;;;;;;13.80;5.82;;;;;;;-146.73;100.00;56421.06;6064388;23;20019;-95
2022/11/16 01:53:23;;;;;;;13.57;6.10;;;;;;;-146.73;100.00;56421.06;6063184;23;20097;-94
2022/11/16 01:55:49;;;;;;;14.05;5.30;;;;;;;-146.73;100.00;56421.06;6086831;23;20066;-94
2022/11/16 01:58:19;;;;;;;13.00;5.63;;;;;;;-146.73;100.00;56421.06;6062811;23;20094;-94
2022/11/16 02:00:45;;;;;;;12.13;5.45;;;;;;;-146.73;100.00;56421.06;6061802;23;20003;-95
2022/11/16 02:03:11;;;;;;;11.70;5.30;;;;;;;-146.73;100.00;56421.06;6062038;23;20093;-96
2022/11/16 02:06:02;;;;;;;15.38;5.60;;;;;;;-146.73;100.00;56421.06;6063710;23;20029;-94
2022/11/16 02:11:57;;;;;;;13.15;5.85;;;;;;;-146.73;100.00;56421.06;6064988;23;20037;-94
2022/11/16 02:14:44;;;;;;;11.57;5.63;;;;;;;-146.73;100.00;56421.06;6063962;23;20031;-96
2022/11/16 02:17:42;;;;;;;14.23;5.40;;;;;;;-146.73;100.00;56421.06;6063834;23;20102;-95
2022/11/16 02:20:20;;;;;;;10.25;5.07;;;;;;;-146.73;100.00;56421.06;6068682;23;20078;-95
2022/11/16 02:22:54;;;;;;;12.13;4.78;;;;;;;-146.73;100.00;56421.06;6085754;23;20359;-95
2022/11/16 02:25:28;;;;;;;12.98;5.40;;;;;;;-146.73;100.00;56421.06;6075508;23;20038;-96
2022/11/16 02:27:56;;;;;;;12.38;5.15;;;;;;;-146.73;100.00;56421.06;6067772;23;20082;-95
2022/11/16 02:30:22;;;;;;;13.35;5.32;;;;;;;-146.73;100.00;56421.06;6065153;23;20034;-95
2022/11/16 02:33:08;;;;;;;14.70;5.78;;;;;;;-146.73;100.00;56421.06;6076248;23;20002;-93
2022/11/16 02:35:39;;;;;;;14.50;5.65;;;;;;;-146.73;100.00;56421.06;6111709;23;20038;-96
2022/11/16 02:38:18;;;;;;;14.27;5.65;;;;;;;-146.73;100.00;56421.06;6099694;23;20026;-94
2022/11/16 02:40:49;;;;;;;14.10;5.65;;;;;;;-146.73;100.00;56421.06;6093418;23;20015;-94
2022/11/16 02:43:28;;;;;;;21.48;6.70;;;;;;;-146.73;100.00;56421.06;6068155;23;20077;-94
2022/11/16 02:45:57;;;;;;;15.77;6.47;;;;;;;-146.73;100.00;56421.06;6092492;23;20010;-94
2022/11/16 02:48:36;;;;;;;14.57;5.95;;;;;;;-146.73;100.00;56421.06;6092277;23;20017;-95
2022/11/16 02:51:05;;;;;;;12.25;6.00;;;;;;;-146.73;100.00;56421.06;6068061;23;20023;-94
2022/11/16 02:53:36;;;;;;;12.80;5.82;;;;;;;-146.73;100.00;56421.06;6068733;23;20090;-94
2022/11/16 02:56:01;;;;;;;11.77;4.88;;;;;;;-146.73;100.00;56421.06;6068003;23;20027;-94
2022/11/16 02:58:28;;;;;;;11.85;5.00;;;;;;;-146.73;100.00;56421.06;6090828;23;20448;-95
2022/11/16 03:03:48;;;;;;;12.00;4.82;;;;;;;-146.73;100.00;56421.06;6029810;23;20361;-95
2022/11/16 03:06:24;;;;;;;13.13;5.03;;;;;;;-146.73;100.00;56421.06;6011327;23;20452;-95
2022/11/16 03:09:01;;;;;;;12.15;5.32;;;;;;;-146.73;100.00;56421.06;6012872;23;20448;-95
2022/11/16 03:14:17;;;;;;;13.32;4.50;;;;;;;-146.73;100.00;56421.06;6033496;23;20448;-95
2022/11/16 03:16:47;;;;;;;12.07;4.18;;;;;;;-146.73;100.00;56421.06;6007637;23;20011;-94
2022/11/16 03:19:20;;;;;;;10.85;4.10;;;;;;;-146.73;100.00;56421.06;6009061;23;20062;-94
2022/11/16 03:21:58;;;;;;;11.20;4.30;;;;;;;-146.73;100.00;56421.06;6010527;23;20118;-96
2022/11/16 03:24:24;;;;;;;9.95;3.92;;;;;;;-146.73;100.00;56421.06;6035437;23;20011;-96
2022/11/16 03:26:56;;;;;;;9.27;3.90;;;;;;;-146.73;100.00;56421.06;6009741;23;20013;-94
2022/11/16 03:29:29;;;;;;;10.82;3.88;;;;;;;-146.73;100.00;56421.06;6009159;23;20378;-95
2022/11/16 03:32:03;;;;;;;8.82;3.60;;;;;;;-146.73;100.00;56421.06;6009474;23;20007;-94
2022/11/16 03:34:32;;;;;;;;;;;;;;;-146.73;100.00;56421.06;6009385;23;20087;-96
2022/11/16 03:36:59;;;;;;;9.82;3.25;;;;;;;-146.73;100.00;56421.06;6010408;23;19914;-95
2022/11/16 03:39:32;;;;;;;11.57;3.58;;;;;;;-146.73;100.00;56421.06;6011024;23;20033;-94
2022/11/16 03:41:59;;;;;;;;;;;;;;;-146.73;100.00;56421.06;6009986;23;20011;-92
2022/11/16 03:44:27;;;;;;;11.20;3.10;;;;;;;-146.73;100.00;56421.06;6009300;23;19909;-95
2022/11/16 03:46:53;;;;;;;8.63;2.97;;;;;;;-146.73;100.00;56421.06;6035011;23;20453;-95
2022/11/16 03:49:22;;;;;;;8.70;3.08;;;;;;;-146.73;100.00;56421.06;6010198;23;20003;-96
2022/11/16 03:51:49;;;;;;;8.93;2.83;;;;;;;-146.73;100.00;56421.06;6009749;23;20461;-96
2022/11/16 03:54:14;;;;;;;8.10;2.47;;;;;;;-146.73;100.00;56421.06;6006534;23;20015;-94
2022/11/16 03:56:40;;;;;;;9.98;2.50;;;;;;;-146.73;100.00;56421.06;6011529;23;20019;-95
2022/11/16 03:59:06;;;;;;;10.07;2.88;;;;;;;-146.73;100.00;56421.06;6010015;23;20007;-93
2022/11/16 04:01:32;;;;;;;9.85;3.13;;;;;;;-146.73;100.00;56421.06;6008729;23;20101;-94
2022/11/16 04:03:57;;;;;;;8.95;3.40;;;;;;;-146.73;100.00;56421.06;6051164;23;20034;-93
2022/11/16 04:25:46;;;;;;;11.55;4.30;;;;;;;-146.73;100.00;56421.06;6062370;23;20357;-95
2022/11/16 04:28:12;;;;;;;11.85;3.47;;;;;;;-146.73;100.00;56421.06;6062199;23;20019;-95
2022/11/16 04:38:53;;;;;;;10.80;2.90;;;;;;;-146.73;100.00;56421.06;6063253;23;20030;-94
2022/11/16 04:44:02;;;;;;;9.48;2.33;;;;;;;-146.73;100.00;56421.06;6063520;23;20057;-95
2022/11/16 04:49:12;;;;;;;8.75;2.33;;;;;;;-146.73;100.00;56421.06;6061051;23;20508;-95
2022/11/16 04:51:37;;;;;;;6.63;1.90;;;;;;;-146.73;100.00;56421.06;6061751;23;20015;-95
2022/11/16 04:54:03;;;;;;;10.02;2.50;;;;;;;-146.73;100.00;56421.06;6063123;23;20058;-94
2022/11/16 04:56:30;;;;;;;8.48;1.98;;;;;;;-146.73;100.00;56421.06;6061940;23;20348;-95
2022/11/16 04:58:56;;;;;;;8.13;2.03;;;;;;;-146.73;100.00;56421.06;6061507;23;20003;-95
2022/11/16 05:02:06;;;;;;;10.65;2.40;;;;;;;-146.73;100.00;56421.06;6061051;23;20017;-95
2022/11/16 05:04:10;;;;;;;10.60;2.60;;;;;;;-146.73;100.00;56421.06;6035251;23;20381;-96
2022/11/16 05:06:35;;;;;;;9.30;2.45;;;;;;;-146.73;100.00;56421.06;6034664;23;20003;-95
2022/11/16 05:09:01;;;;;;;9.60;2.60;;;;;;;-146.73;100.00;56421.06;6007339;23;20018;-95
2022/11/16 05:11:26;;;;;;;10.32;2.45;;;;;;;-146.73;100.00;56421.06;6009312;23;20011;-94
2022/11/16 05:13:52;;;;;;;11.38;2.30;;;;;;;-146.73;100.00;56421.06;6034326;23;20319;-96
2022/11/16 05:16:17;;;;;;;11.13;2.38;;;;;;;-146.73;100.00;56421.06;6008827;23;20026;-95
2022/11/16 05:18:42;;;;;;;12.30;2.17;;;;;;;-146.73;100.00;56421.06;6008610;23;20004;-95
2022/11/16 05:21:09;;;;;;;9.05;2.63;;;;;;;-146.73;100.00;56421.06;6008992;23;20022;-95
2022/11/16 05:26:19;;;;;;;8.43;2.30;;;;;;;-146.73;100.00;56421.06;6032041;23;20026;-95
2022/11/16 05:28:44;;;;;;;10.60;2.50;;;;;;;-146.73;100.00;56421.06;6005085;23;20015;-95
2022/11/16 05:31:10;;;;;;;10.73;3.35;;;;;;;-146.73;100.00;56421.06;6004036;23;20353;-96
2022/11/16 05:33:35;;;;;;;9.60;2.70;;;;;;;-146.73;100.00;56421.06;6008584;23;20023;-96
2022/11/16 05:36:00;;;;;;;11.43;3.50;;;;;;;-146.73;100.00;56421.06;6033285;23;20003;-95
2022/11/16 05:38:26;;;;;;;14.05;3.40;;;;;;;-146.73;100.00;56421.06;6009353;23;20428;-95
2022/11/16 05:40:52;;;;;;;8.25;3.20;;;;;;;-146.73;100.00;56421.06;6009885;23;20083;-94
2022/11/16 05:43:21;;;;;;;12.20;2.80;;;;;;;-146.73;100.00;56421.06;6007682;23;20007;-96
2022/11/16 05:45:46;;;;;;;10.05;3.08;;;;;;;-146.73;100.00;56421.06;6007514;23;20014;-96
2022/11/16 05:48:11;;;;;;;12.20;3.05;;;;;;;-146.73;100.00;56421.06;6007586;23;20452;-95
2022/11/16 05:50:37;;;;;;;9.73;3.00;;;;;;;-146.73;100.00;56421.06;6032699;23;20014;-96
2022/11/16 05:53:02;;;;;;;10.18;2.85;;;;;;;-146.73;100.00;56421.06;6007801;23;20031;-95
2022/11/16 05:55:28;;;;;;;10.57;3.13;;;;;;;-146.73;100.00;56421.06;6008281;23;20085;-95
2022/11/16 05:57:53;;;;;;;9.20;2.63;;;;;;;-146.73;100.00;56421.06;6033349;23;20003;-95
2022/11/16 06:00:19;;;;;;;12.73;3.20;;;;;;;-146.73;100.00;56421.06;6008402;23;20050;-95
2022/11/16 06:02:44;;;;;;;9.82;3.10;;;;;;;-146.73;100.00;56421.06;6023267;23;20030;-95
2022/11/16 06:05:09;;;;;;;12.18;2.80;;;;;;;-146.73;100.00;56421.06;6057703;23;20114;-96
2022/11/16 06:07:35;;;;;;;11.13;2.90;;;;;;;-146.73;100.00;56421.06;6061555;23;20059;-96
2022/11/16 06:10:00;;;;;;;8.77;2.38;;;;;;;-146.73;100.00;56421.06;6062610;23;20590;-96
2022/11/16 06:12:25;;;;;;;10.68;2.53;;;;;;;-146.73;100.00;56421.06;6063499;23;20026;-96
2022/11/16 06:14:54;;;;;;;13.18;2.33;;;;;;;-146.73;100.00;56421.06;6062429;23;20397;-95
2022/11/16 06:17:19;;;;;;;11.60;2.92;;;;;;;-146.73;100.00;56421.06;6061451;23;20021;-96
2022/11/16 06:19:45;;;;;;;12.68;2.70;;;;;;;-146.73;100.00;56421.06;6062526;23;20397;-95
2022/11/16 06:22:10;;;;;;;9.10;2.75;;;;;;;-146.73;100.00;56421.06;6073551;23;20015;-96
2022/11/16 06:24:44;;;;;;;11.88;2.72;;;;;;;-146.73;100.00;56421.06;6085793;23;20002;-96
2022/11/16 06:27:44;;;;;;;10.73;3.05;;;;;;;-146.73;100.00;56421.06;6086472;23;20021;-96
2022/11/16 06:30:09;;;;;;;11.13;2.55;;;;;;;-146.73;100.00;56421.06;6064516;23;20033;-96
2022/11/16 06:32:35;;;;;;;12.20;2.70;;;;;;;-146.73;100.00;56421.06;6065627;23;20015;-96
2022/11/16 06:35:00;;;;;;;12.88;2.83;;;;;;;-146.73;100.00;56421.06;6077305;23;20500;-96
2022/11/16 06:37:26;;;;;;;11.30;3.17;;;;;;;-146.73;100.00;56421.06;6073666;23;20003;-96
2022/11/16 06:40:03;;;;;;;13.00;2.75;;;;;;;-146.73;100.00;56421.06;6079100;23;20003;-96
2022/11/16 06:42:30;;;;;;;9.27;2.88;;;;;;;-146.73;100.00;56421.06;6068340;23;20019;-95
2022/11/16 06:44:55;;;;;;;11.15;2.75;;;;;;;-146.73;100.00;56421.06;6069268;23;20010;-96
2022/11/16 06:47:21;;;;;;;11.23;2.95;;;;;;;-146.73;100.00;56421.06;6064922;23;20352;-96
2022/11/16 06:49:47;;;;;;;10.68;2.50;;;;;;;-146.73;100.00;56421.06;6066324;23;20038;-96
2022/11/16 06:52:12;;;;;;;11.07;2.53;;;;;;;-146.73;100.00;56421.06;6064907;23;20453;-95
2022/11/16 06:54:38;;;;;;;9.77;2.67;;;;;;;-146.73;100.00;56421.06;6065691;23;20003;-95
2022/11/16 06:57:03;;;;;;;7.85;2.08;;;;;;;-146.73;100.00;56421.06;6063817;23;20015;-96
2022/11/16 06:59:29;;;;;;;13.05;2.90;;;;;;;-146.73;100.00;56421.06;6063978;23;20039;-96
2022/11/16 07:01:54;;;;;;;8.45;2.65;;;;;;;-146.73;100.00;56421.06;6062819;23;20500;-96
2022/11/16 07:04:20;;;;;;;10.13;3.60;;;;;;;-146.73;100.00;56421.06;6010964;23;20007;-95
2022/11/16 07:06:46;;;;;;;8.63;3.13;;;;;;;-146.73;100.00;56421.06;6010711;23;20019;-96
2022/11/16 07:09:13;;;;;;;12.80;4.35;;;;;;;-146.73;100.00;56421.06;6009589;23;20056;-95
2022/11/16 07:11:39;;;;;;;13.52;4.05;;;;;;;-146.73;100.00;56421.06;6010521;23;20170;-95
2022/11/16 07:14:05;;;;;;;10.32;3.85;;;;;;;-146.73;100.00;56421.06;6014171;23;20015;-96
2022/11/16 07:16:37;;;;;;;13.85;3.92;;;;;;;-146.73;100.00;56421.06;6012737;23;20079;-96
2022/11/16 07:19:03;;;;;;;11.07;4.13;;;;;;;-146.73;100.00;56421.06;6010323;23;20023;-96
2022/11/16 07:21:29;;;;;;;12.82;4.40;;;;;;;-146.73;100.00;56421.06;6011194;23;20011;-96
2022/11/16 07:23:55;;;;;;;11.93;4.07;;;;;;;-146.73;100.00;56421.06;6012284;23;20442;-96
2022/11/16 07:26:24;;;;;;;11.93;3.72;;;;;;;-146.73;100.00;56421.06;6008903;23;20022;-96
2022/11/16 07:28:49;;;;;;;13.30;4.55;;;;;;;-146.73;100.00;56421.06;6014830;23;20027;-96
2022/11/16 07:31:15;;;;;;;15.23;4.57;;;;;;;-146.73;100.00;56421.06;6007164;23;20031;-95
2022/11/16 07:33:41;;;;;;;14.00;4.43;;;;;;;-146.73;100.00;56421.06;6007087;23;20045;-95
2022/11/16 07:36:09;;;;;;;11.40;4.93;;;;;;;-146.73;100.00;56421.06;6007377;23;20031;-94
2022/11/16 07:38:34;;;;;;;11.23;3.92;;;;;;;-146.73;100.00;56421.06;6034147;23;20300;-96
2022/11/16 07:41:02;;;;;;;13.85;3.85;;;;;;;-146.73;100.00;56421.06;6007948;23;20559;-96
2022/11/16 07:43:30;;;;;;;11.25;3.60;;;;;;;-146.73;100.00;56421.06;6010782;23;20048;-95
2022/11/16 07:46:00;;;;;;;10.30;3.97;;;;;;;-146.73;100.00;56421.06;6009025;23;20155;-95
2022/11/16 07:48:25;;;;;;;11.05;3.72;;;;;;;-146.73;100.00;56421.06;6007563;23;20019;-96
2022/11/16 07:51:01;;;;;;;12.93;3.92;;;;;;;-146.73;100.00;56421.06;6007228;23;20426;-93
2022/11/16 07:53:27;;;;;;;11.02;3.97;;;;;;;-146.73;100.00;56421.06;6005891;23;20094;-94
2022/11/16 07:55:53;;;;;;;11.25;4.07;;;;;;;-146.73;100.00;56421.06;6000217;23;20493;-94
2022/11/16 07:58:19;;;;;;;12.73;3.50;;;;;;;-146.73;100.00;56421.06;6029537;23;19999;-94
2022/11/16 08:00:45;;;;;;;10.48;3.70;;;;;;;-146.73;100.00;56421.06;6006735;23;20481;-94
2022/11/16 08:03:11;;;;;;;14.90;3.97;;;;;;;-146.73;100.00;56421.06;6035534;23;20055;-96
2022/11/16 08:05:36;;;;;;;10.55;4.18;;;;;;;-146.73;100.00;56421.06;6060268;23;20022;-95
2022/11/16 08:08:40;;;;;;;15.05;3.92;;;;;;;-146.73;100.00;56421.06;6060271;23;20066;-93
2022/11/16 08:11:08;;;;;;;14.45;4.55;;;;;;;-146.73;100.00;56421.06;6060296;23;20238;-95
2022/11/16 08:13:35;;;;;;;17.08;4.68;;;;;;;-146.73;100.00;56421.06;6064352;23;20045;-94
2022/11/16 08:16:27;;;;;;;18.10;4.85;;;;;;;-146.73;100.00;56421.06;6064455;23;20768;-95
2022/11/16 08:18:53;;;;;;;15.13;5.13;;;;;;;-146.73;100.00;56421.06;6056135;23;20010;-94
2022/11/16 08:21:18;;;;;;;17.65;5.22;;;;;;;-146.73;100.00;56421.06;6062985;23;20074;-96
2022/11/16 08:23:45;;;;;;;17.67;5.28;;;;;;;-146.73;100.00;56421.06;6063213;23;20045;-95
2022/11/16 08:26:16;;;;;;;17.35;5.50;;;;;;;-146.73;100.00;56421.06;6063065;23;20036;-94
2022/11/16 08:28:44;;;;;;;13.00;4.82;;;;;;;-146.73;100.00;56421.06;6062218;23;20018;-94
2022/11/16 08:31:13;;;;;;;14.02;4.25;;;;;;;-146.73;100.00;56421.06;6061696;23;20021;-95
2022/11/16 08:33:38;;;;;;;12.90;4.82;;;;;;;-146.73;100.00;56421.06;6058930;23;20018;-96
2022/11/16 08:36:06;;;;;;;13.32;4.63;;;;;;;-146.73;100.00;56421.06;6062628;23;20007;-95
2022/11/16 08:38:31;;;;;;;14.80;4.35;;;;;;;-146.73;100.00;56421.06;6062123;23;20058;-94
2022/11/16 08:40:57;;;;;;;11.05;3.45;;;;;;;-146.73;100.00;56421.06;6061520;23;20490;-94
2022/11/16 08:43:22;;;;;;;11.77;3.72;;;;;;;-146.73;100.00;56421.06;6062934;23;20010;-93
2022/11/16 08:45:48;;;;;;;11.45;4.00;;;;;;;-146.73;100.00;56421.06;6062134;23;20104;-94
2022/11/16 08:48:14;;;;;;;8.75;3.35;;;;;;;-146.73;100.00;56421.06;6062380;23;20025;-93
2022/11/16 08:50:39;;;;;;;11.70;3.70;;;;;;;-146.73;100.00;56421.06;6061651;23;20013;-94
2022/11/16 08:53:04;;;;;;;11.90;3.88;;;;;;;-146.73;100.00;56421.06;6062462;23;20011;-94
2022/11/16 08:55:30;;;;;;;13.63;4.15;;;;;;;-146.73;100.00;56421.06;6062644;23;20022;-93
2022/11/16 08:57:58;;;;;;;14.95;4.70;;;;;;;-146.73;100.00;56421.06;6063293;23;20018;-94
2022/11/16 09:00:25;;;;;;;17.38;5.47;;;;;;;-146.73;100.00;56421.06;6063290;23;20015;-95
2022/11/16 09:02:56;;;;;;;14.85;5.63;;;;;;;-146.73;100.00;56421.06;6063417;23;20030;-95
2022/11/16 09:05:22;;;;;;;18.80;5.93;;;;;;;-146.73;100.00;56421.06;6064506;23;20097;-94
2022/11/16 09:07:57;;;;;;;15.15;5.47;;;;;;;-146.73;100.00;56421.06;6066433;23;20011;-96
2022/11/16 09:10:25;;;;;;;15.70;5.53;;;;;;;-146.73;100.00;56421.06;6077113;23;20015;-96
2022/11/16 09:12:54;;;;;;;17.70;5.57;;;;;;;-146.73;100.00;56421.06;6078304;23;20768;-95
2022/11/16 09:15:27;;;;;;;13.32;4.97;;;;;;;-146.73;100.00;56421.06;6076920;23;20026;-96
2022/11/16 09:17:53;;;;;;;16.83;5.30;;;;;;;-146.73;100.00;56421.06;6073188;23;20102;-96
2022/11/16 09:20:19;;;;;;;16.52;5.93;;;;;;;-146.73;100.00;56421.06;6071692;23;20019;-96
2022/11/16 09:22:44;;;;;;;15.00;5.43;;;;;;;-146.73;100.00;56421.06;6074311;23;20013;-95
2022/11/16 09:25:10;;;;;;;14.57;5.30;;;;;;;-146.73;100.00;56421.06;6066219;23;20006;-95
2022/11/16 09:27:36;;;;;;;14.60;4.90;;;;;;;-146.73;100.00;56421.06;6064455;23;20006;-95
2022/11/16 09:30:03;;;;;;;13.38;5.28;;;;;;;-146.73;100.00;56421.06;6063852;23;20339;-94
2022/11/16 09:32:29;;;;;;;15.45;5.22;;;;;;;-146.73;100.00;56421.06;6064611;23;20062;-96
2022/11/16 09:34:54;;;;;;;15.88;5.28;;;;;;;-146.73;100.00;56421.06;6068765;23;20015;-95
2022/11/16 09:37:19;;;;;;;13.02;5.03;;;;;;;-146.73;100.00;56421.06;6068099;23;20042;-95
2022/11/16 09:39:45;;;;;;;14.77;5.32;;;;;;;-146.73;100.00;56421.06;6065820;23;20035;-94
2022/11/16 09:42:42;;;;;;;11.63;4.63;;;;;;;-146.73;100.00;56421.06;6067483;23;20425;-96
2022/11/16 09:45:21;;;;;;;15.02;5.00;;;;;;;-146.73;100.00;56421.06;6067968;23;20014;-96
2022/11/16 09:48:01;;;;;;;15.73;4.75;;;;;;;-146.73;100.00;56421.06;6067171;23;20059;-95
2022/11/16 09:50:34;;;;;;;12.63;4.35;;;;;;;-146.73;100.00;56421.06;6067102;23;20086;-95
2022/11/16 09:53:27;;;;;;;15.65;4.75;;;;;;;-146.73;100.00;56421.06;6066745;23;20604;-96
2022/11/16 09:55:57;;;;;;;13.40;4.10;;;;;;;-146.73;100.00;56421.06;6066919;23;20063;-96
2022/11/16 09:58:37;;;;;;;13.23;3.95;;;;;;;-146.73;100.00;56421.06;6068027;23;20233;-94
2022/11/16 10:01:34;;;;;;;11.65;3.80;;;;;;;-146.73;100.00;56421.06;6066438;23;20014;-94
2022/11/16 10:04:09;;;;;;;14.70;3.72;;;;;;;-146.73;100.00;56421.06;6070232;23;20018;-95
2022/11/16 10:07:11;;;;;;;14.48;3.88;;;;;;;-146.73;100.00;56421.06;6068266;23;20361;-95
2022/11/16 10:09:36;;;;;;;10.20;3.45;;;;;;;-146.73;100.00;56421.06;6067031;23;20042;-95
2022/11/16 10:12:17;;;;;;;10.27;3.53;;;;;;;-146.73;100.00;56421.06;6066308;23;20046;-94
2022/11/16 10:15:08;;;;;;;11.65;3.78;;;;;;;-146.73;100.00;56421.06;6066484;23;20010;-95
2022/11/16 10:17:44;;;;;;;12.73;3.42;;;;;;;-146.73;100.00;56421.06;6065471;23;20011;-94
2022/11/16 10:20:40;;;;;;;13.38;4.28;;;;;;;-146.73;100.00;56421.06;6065906;23;20014;-96
2022/11/16 10:23:28;;;;;;;10.57;4.00;;;;;;;-146.73;100.00;56421.06;6063864;23;20015;-94
2022/11/16 10:26:10;;;;;;;12.98;4.50;;;;;;;-146.73;100.00;56421.06;6064713;23;20007;-93
2022/11/16 10:29:09;;;;;;;16.95;5.78;;;;;;;-146.73;100.00;56421.06;6064022;23;20411;-93
2022/11/16 10:31:50;;;;;;;16.23;5.93;;;;;;;-146.73;100.00;56421.06;6063008;23;20014;-94
2022/11/16 10:34:24;;;;;;;18.92;6.13;;;;;;;-146.73;100.00;56421.06;6065278;23;20050;-95
2022/11/16 10:36:49;;;;;;;17.27;6.13;;;;;;;-146.73;100.00;56421.06;6063047;23;20014;-93
2022/11/16 10:39:18;;;;;;;14.10;5.63;;;;;;;-146.73;100.00;56421.06;6064778;23;20007;-94
2022/11/16 10:41:51;;;;;;;20.65;6.75;;;;;;;-146.73;100.00;56421.06;6063312;23;20010;-95
2022/11/16 10:44:35;;;;;;;13.85;5.93;;;;;;;-146.73;100.00;56421.06;6064989;23;20018;-94
2022/11/16 10:47:19;;;;;;;;;;;;;;;-146.73;100.00;56421.06;6064728;23;20046;-94
2022/11/16 10:50:14;;;;;;;16.48;5.65;;;;;;;-146.73;100.00;56421.06;6064862;23;19909;-94
2022/11/16 10:52:39;;;;;;;14.07;4.78;;;;;;;-146.73;100.00;56421.06;6060113;23;20041;-93
2022/11/16 10:55:05;;;;;;;16.08;5.13;;;;;;;-146.73;100.00;56421.06;6064659;23;20441;-95
2022/11/16 10:58:01;;;;;;;14.63;4.72;;;;;;;-146.73;100.00;56421.06;6062689;23;20011;-94
2022/11/16 11:00:47;;;;;;;14.02;4.55;;;;;;;-146.73;100.00;56421.06;6063376;23;20026;-94
2022/11/16 11:03:13;;;;;;;13.32;4.57;;;;;;;-146.73;100.00;56421.06;6048266;23;20035;-94
2022/11/16 11:05:51;;;;;;;11.68;4.95;;;;;;;-146.73;100.00;56421.06;6035206;23;20031;-93
2022/11/16 11:08:32;;;;;;;12.40;5.15;;;;;;;-146.73;100.00;56421.06;6034009;23;20095;-93
2022/11/16 11:14:24;;;;;;;14.18;4.78;;;;;;;-146.73;100.00;56421.06;6035155;23;20027;-93
2022/11/16 11:16:53;;;;;;;14.90;4.88;;;;;;;-146.73;100.00;56421.06;5948485;24;20027;-93
2022/11/16 11:19:26;;;;;;;14.32;4.57;;;;;;;-146.73;100.00;56421.06;5925178;24;20095;-94
2022/11/16 11:21:58;;;;;;;15.93;4.38;;;;;;;-146.73;100.00;56421.06;5926774;24;20325;-94
2022/11/16 11:24:27;;;;;;;8.68;4.20;;;;;;;-146.73;100.00;56421.06;5948693;24;20035;-93
2022/11/16 11:26:57;;;;;;;12.07;4.40;;;;;;;-146.73;100.00;56421.06;5949849;24;20020;-95
2022/11/16 11:29:38;;;;;;;11.43;4.32;;;;;;;-146.73;100.00;56421.06;5951095;24;20016;-93
2022/11/16 11:32:12;;;;;;;12.02;4.50;;;;;;;-146.73;100.00;56421.06;5926670;24;20032;-96
2022/11/16 11:34:46;;;;;;;14.85;5.07;;;;;;;-146.73;100.00;56421.06;5951049;24;20024;-96
2022/11/16 11:37:27;;;;;;;11.48;4.80;;;;;;;-146.73;100.00;56421.06;5951005;24;20024;-95
2022/11/16 11:40:18;;;;;;;10.95;4.15;;;;;;;-146.73;100.00;56421.06;5928024;24;20013;-96
2022/11/16 11:42:53;;;;;;;11.27;4.72;;;;;;;-146.73;100.00;56421.06;5928059;24;20016;-95
2022/11/16 11:45:20;;;;;;;14.70;5.10;;;;;;;-146.73;100.00;56421.06;5928885;24;20347;-94
2022/11/16 11:48:28;;;;;;;12.75;4.72;;;;;;;-146.73;100.00;56421.06;5951869;24;20099;-93
2022/11/16 11:50:57;;;;;;;11.07;4.55;;;;;;;-146.73;100.00;56421.06;5969277;23;20027;-92
2022/11/16 11:53:28;;;;;;;13.27;5.25;;;;;;;-146.73;100.00;56421.06;6008873;23;20007;-95
2022/11/16 11:55:57;;;;;;;11.40;4.65;;;;;;;-146.73;100.00;56421.06;6010582;23;20015;-96
2022/11/16 11:58:27;;;;;;;12.80;4.95;;;;;;;-146.73;100.00;56421.06;6020609;23;20018;-96
2022/11/16 12:01:01;;;;;;;16.33;5.50;;;;;;;-146.73;100.00;56421.06;6094491;23;20069;-96
2022/11/16 12:03:54;;;;;;;16.33;6.07;;;;;;;-146.73;100.00;56421.06;6068225;23;20066;-96
2022/11/16 12:06:54;;;;;;;14.38;6.10;;;;;;;-146.73;100.00;56421.06;6067990;23;20021;-96
2022/11/16 12:09:53;;;;;;;15.27;6.05;;;;;;;-146.73;100.00;56421.06;6067696;23;20519;-95